Terminal Aerodrome Forecast
Issued by NWS Shreveport, LA

Home | Current Version | Previous Version | Text Only | Print | Product List | Glossary On
Versions: 1 2 3 4 5 6 7 8 9 10 11 12 13 14
000
FTUS44 KSHV 161700 RRA
TAFGGG
TAF
KGGG 161753Z 1618/1718 13012G20KT P6SM BKN280
     FM170000 16010KT P6SM SCT250
     FM171100 13007KT 6SM BR OVC025
     FM171400 14008KT P6SM OVC015
     FM171600 15009KT P6SM SCT030 BKN040=

USA.gov is the U.S. government's official web portal to all federal, state and local government web resources and services.